sensor_id;sensor_type;location;lat;lon;timestamp;P1;durP1;ratioP1;P2;durP2;ratioP2
7647;SDS011;3866;48.020;11.720;2023-05-10T00:01:25;2.17;;;1.03;;
7647;SDS011;3866;48.020;11.720;2023-05-10T00:03:53;1.07;;;0.73;;
7647;SDS011;3866;48.020;11.720;2023-05-10T00:06:20;1.27;;;0.80;;
7647;SDS011;3866;48.020;11.720;2023-05-10T00:08:47;0.73;;;0.73;;
7647;SDS011;3866;48.020;11.720;2023-05-10T00:11:13;1.13;;;1.00;;
7647;SDS011;3866;48.020;11.720;2023-05-10T00:13:40;0.90;;;0.90;;
7647;SDS011;3866;48.020;11.720;2023-05-10T00:16:07;2.83;;;1.53;;
7647;SDS011;3866;48.020;11.720;2023-05-10T00:18:34;1.93;;;1.00;;
7647;SDS011;3866;48.020;11.720;2023-05-10T00:21:02;0.97;;;0.90;;
7647;SDS011;3866;48.020;11.720;2023-05-10T00:23:30;1.00;;;1.00;;
7647;SDS011;3866;48.020;11.720;2023-05-10T00:25:56;0.60;;;0.60;;
7647;SDS011;3866;48.020;11.720;2023-05-10T00:28:23;2.40;;;1.00;;
7647;SDS011;3866;48.020;11.720;2023-05-10T00:30:50;1.00;;;0.90;;
7647;SDS011;3866;48.020;11.720;2023-05-10T00:33:17;0.73;;;0.73;;
7647;SDS011;3866;48.020;11.720;2023-05-10T00:35:44;2.73;;;0.90;;
7647;SDS011;3866;48.020;11.720;2023-05-10T00:38:12;2.33;;;0.90;;
7647;SDS011;3866;48.020;11.720;2023-05-10T00:40:39;0.90;;;0.90;;
7647;SDS011;3866;48.020;11.720;2023-05-10T00:43:06;1.00;;;0.80;;
7647;SDS011;3866;48.020;11.720;2023-05-10T00:45:33;0.73;;;0.70;;
7647;SDS011;3866;48.020;11.720;2023-05-10T00:48:01;1.00;;;0.87;;
7647;SDS011;3866;48.020;11.720;2023-05-10T00:50:29;2.03;;;0.70;;
7647;SDS011;3866;48.020;11.720;2023-05-10T00:52:57;0.80;;;0.80;;
7647;SDS011;3866;48.020;11.720;2023-05-10T00:55:26;2.40;;;0.90;;
7647;SDS011;3866;48.020;11.720;2023-05-10T00:57:53;1.70;;;0.83;;
7647;SDS011;3866;48.020;11.720;2023-05-10T01:00:20;2.20;;;0.80;;
7647;SDS011;3866;48.020;11.720;2023-05-10T01:02:47;1.90;;;0.77;;
7647;SDS011;3866;48.020;11.720;2023-05-10T01:05:15;1.63;;;1.00;;
7647;SDS011;3866;48.020;11.720;2023-05-10T01:07:41;1.57;;;0.93;;
7647;SDS011;3866;48.020;11.720;2023-05-10T01:10:09;1.43;;;0.70;;
7647;SDS011;3866;48.020;11.720;2023-05-10T01:12:38;2.40;;;0.77;;
7647;SDS011;3866;48.020;11.720;2023-05-10T01:15:07;0.97;;;0.83;;
7647;SDS011;3866;48.020;11.720;2023-05-10T01:17:36;1.20;;;0.80;;
7647;SDS011;3866;48.020;11.720;2023-05-10T01:20:06;1.40;;;0.67;;
7647;SDS011;3866;48.020;11.720;2023-05-10T01:22:41;0.70;;;0.70;;
7647;SDS011;3866;48.020;11.720;2023-05-10T01:25:38;0.77;;;0.60;;
7647;SDS011;3866;48.020;11.720;2023-05-10T01:28:22;1.57;;;0.53;;
7647;SDS011;3866;48.020;11.720;2023-05-10T01:31:07;1.23;;;0.60;;
7647;SDS011;3866;48.020;11.720;2023-05-10T01:33:47;0.70;;;0.70;;
7647;SDS011;3866;48.020;11.720;2023-05-10T01:36:23;0.87;;;0.87;;
7647;SDS011;3866;48.020;11.720;2023-05-10T01:38:53;0.90;;;0.70;;
7647;SDS011;3866;48.020;11.720;2023-05-10T01:41:27;0.60;;;0.60;;
7647;SDS011;3866;48.020;11.720;2023-05-10T01:44:00;1.17;;;0.97;;
7647;SDS011;3866;48.020;11.720;2023-05-10T01:46:33;1.37;;;0.70;;
7647;SDS011;3866;48.020;11.720;2023-05-10T01:49:06;0.87;;;0.50;;
7647;SDS011;3866;48.020;11.720;2023-05-10T01:51:36;3.40;;;0.67;;
7647;SDS011;3866;48.020;11.720;2023-05-10T01:54:08;1.00;;;0.60;;
7647;SDS011;3866;48.020;11.720;2023-05-10T01:56:36;0.50;;;0.50;;
7647;SDS011;3866;48.020;11.720;2023-05-10T01:59:05;0.77;;;0.60;;
7647;SDS011;3866;48.020;11.720;2023-05-10T02:01:37;1.13;;;0.63;;
7647;SDS011;3866;48.020;11.720;2023-05-10T02:04:07;0.80;;;0.57;;
7647;SDS011;3866;48.020;11.720;2023-05-10T02:06:35;2.40;;;0.60;;
7647;SDS011;3866;48.020;11.720;2023-05-10T02:09:04;0.60;;;0.30;;
7647;SDS011;3866;48.020;11.720;2023-05-10T02:11:32;3.40;;;0.80;;
7647;SDS011;3866;48.020;11.720;2023-05-10T02:13:59;0.60;;;0.60;;
7647;SDS011;3866;48.020;11.720;2023-05-10T02:16:27;0.83;;;0.60;;
7647;SDS011;3866;48.020;11.720;2023-05-10T02:18:55;0.67;;;0.40;;
7647;SDS011;3866;48.020;11.720;2023-05-10T02:21:27;1.87;;;0.60;;
7647;SDS011;3866;48.020;11.720;2023-05-10T02:23:55;1.33;;;0.50;;
7647;SDS011;3866;48.020;11.720;2023-05-10T02:26:24;0.80;;;0.40;;
7647;SDS011;3866;48.020;11.720;2023-05-10T02:28:52;0.40;;;0.40;;
7647;SDS011;3866;48.020;11.720;2023-05-10T02:31:20;0.40;;;0.40;;
7647;SDS011;3866;48.020;11.720;2023-05-10T02:33:48;0.47;;;0.40;;
7647;SDS011;3866;48.020;11.720;2023-05-10T02:36:17;2.00;;;0.67;;
7647;SDS011;3866;48.020;11.720;2023-05-10T02:38:48;0.40;;;0.40;;
7647;SDS011;3866;48.020;11.720;2023-05-10T02:41:17;0.37;;;0.37;;
7647;SDS011;3866;48.020;11.720;2023-05-10T02:43:46;0.43;;;0.40;;
7647;SDS011;3866;48.020;11.720;2023-05-10T02:46:15;0.50;;;0.50;;
7647;SDS011;3866;48.020;11.720;2023-05-10T02:48:42;0.63;;;0.57;;
7647;SDS011;3866;48.020;11.720;2023-05-10T02:51:08;2.00;;;0.50;;
7647;SDS011;3866;48.020;11.720;2023-05-10T02:53:42;0.50;;;0.43;;
7647;SDS011;3866;48.020;11.720;2023-05-10T02:56:13;0.50;;;0.50;;
7647;SDS011;3866;48.020;11.720;2023-05-10T02:58:46;0.87;;;0.37;;
7647;SDS011;3866;48.020;11.720;2023-05-10T03:01:13;1.17;;;0.57;;
7647;SDS011;3866;48.020;11.720;2023-05-10T03:03:40;0.30;;;0.30;;
7647;SDS011;3866;48.020;11.720;2023-05-10T03:06:07;0.97;;;0.30;;
7647;SDS011;3866;48.020;11.720;2023-05-10T03:08:34;0.40;;;0.40;;
7647;SDS011;3866;48.020;11.720;2023-05-10T03:11:12;0.40;;;0.37;;
7647;SDS011;3866;48.020;11.720;2023-05-10T03:13:56;1.50;;;0.30;;
7647;SDS011;3866;48.020;11.720;2023-05-10T03:16:35;0.73;;;0.50;;
7647;SDS011;3866;48.020;11.720;2023-05-10T03:19:15;0.40;;;0.40;;
7647;SDS011;3866;48.020;11.720;2023-05-10T03:21:44;1.93;;;0.57;;
7647;SDS011;3866;48.020;11.720;2023-05-10T03:24:17;0.33;;;0.33;;
7647;SDS011;3866;48.020;11.720;2023-05-10T03:26:50;0.40;;;0.37;;
7647;SDS011;3866;48.020;11.720;2023-05-10T03:29:21;0.37;;;0.30;;
7647;SDS011;3866;48.020;11.720;2023-05-10T03:31:49;0.40;;;0.40;;
7647;SDS011;3866;48.020;11.720;2023-05-10T03:34:16;1.07;;;0.50;;
7647;SDS011;3866;48.020;11.720;2023-05-10T03:36:49;0.30;;;0.30;;
7647;SDS011;3866;48.020;11.720;2023-05-10T03:39:15;0.53;;;0.53;;
7647;SDS011;3866;48.020;11.720;2023-05-10T03:41:42;0.63;;;0.30;;
7647;SDS011;3866;48.020;11.720;2023-05-10T03:44:11;2.13;;;0.63;;
7647;SDS011;3866;48.020;11.720;2023-05-10T03:46:38;0.80;;;0.67;;
7647;SDS011;3866;48.020;11.720;2023-05-10T03:49:05;0.67;;;0.67;;
7647;SDS011;3866;48.020;11.720;2023-05-10T03:51:31;2.00;;;0.50;;
7647;SDS011;3866;48.020;11.720;2023-05-10T03:53:58;0.90;;;0.60;;
7647;SDS011;3866;48.020;11.720;2023-05-10T03:56:25;2.73;;;0.83;;
7647;SDS011;3866;48.020;11.720;2023-05-10T03:58:52;2.67;;;1.27;;
7647;SDS011;3866;48.020;11.720;2023-05-10T04:01:20;1.67;;;1.20;;
7647;SDS011;3866;48.020;11.720;2023-05-10T04:03:49;3.30;;;0.80;;
7647;SDS011;3866;48.020;11.720;2023-05-10T04:06:16;2.00;;;0.90;;
7647;SDS011;3866;48.020;11.720;2023-05-10T04:08:43;2.17;;;0.83;;
7647;SDS011;3866;48.020;11.720;2023-05-10T04:11:11;2.13;;;0.87;;
7647;SDS011;3866;48.020;11.720;2023-05-10T04:13:39;1.63;;;0.93;;
7647;SDS011;3866;48.020;11.720;2023-05-10T04:16:06;1.13;;;0.90;;
7647;SDS011;3866;48.020;11.720;2023-05-10T04:18:34;2.50;;;1.10;;
7647;SDS011;3866;48.020;11.720;2023-05-10T04:21:01;1.30;;;0.87;;
7647;SDS011;3866;48.020;11.720;2023-05-10T04:23:28;3.03;;;0.90;;
7647;SDS011;3866;48.020;11.720;2023-05-10T04:25:58;1.87;;;0.67;;
7647;SDS011;3866;48.020;11.720;2023-05-10T04:28:26;0.93;;;0.40;;
7647;SDS011;3866;48.020;11.720;2023-05-10T04:30:55;1.33;;;1.20;;
7647;SDS011;3866;48.020;11.720;2023-05-10T04:33:27;1.07;;;0.60;;
7647;SDS011;3866;48.020;11.720;2023-05-10T04:35:55;1.97;;;0.90;;
7647;SDS011;3866;48.020;11.720;2023-05-10T04:38:22;1.23;;;0.93;;
7647;SDS011;3866;48.020;11.720;2023-05-10T04:40:49;1.00;;;0.80;;
7647;SDS011;3866;48.020;11.720;2023-05-10T04:43:16;3.00;;;0.80;;
7647;SDS011;3866;48.020;11.720;2023-05-10T04:45:43;0.50;;;0.40;;
7647;SDS011;3866;48.020;11.720;2023-05-10T04:48:10;0.40;;;0.40;;
7647;SDS011;3866;48.020;11.720;2023-05-10T04:50:37;3.10;;;1.00;;
7647;SDS011;3866;48.020;11.720;2023-05-10T04:53:06;1.87;;;0.50;;
7647;SDS011;3866;48.020;11.720;2023-05-10T04:55:33;0.50;;;0.50;;
7647;SDS011;3866;48.020;11.720;2023-05-10T04:58:00;1.93;;;0.47;;
7647;SDS011;3866;48.020;11.720;2023-05-10T05:00:27;1.73;;;0.80;;
7647;SDS011;3866;48.020;11.720;2023-05-10T05:02:54;1.27;;;0.50;;
7647;SDS011;3866;48.020;11.720;2023-05-10T05:05:21;1.43;;;0.53;;
7647;SDS011;3866;48.020;11.720;2023-05-10T05:07:48;0.97;;;0.30;;
7647;SDS011;3866;48.020;11.720;2023-05-10T05:10:16;0.77;;;0.20;;
7647;SDS011;3866;48.020;11.720;2023-05-10T05:12:44;0.73;;;0.30;;
7647;SDS011;3866;48.020;11.720;2023-05-10T05:15:11;0.23;;;0.23;;
7647;SDS011;3866;48.020;11.720;2023-05-10T05:17:38;0.20;;;0.20;;
7647;SDS011;3866;48.020;11.720;2023-05-10T05:20:05;0.97;;;0.10;;
7647;SDS011;3866;48.020;11.720;2023-05-10T05:22:33;0.50;;;0.40;;
7647;SDS011;3866;48.020;11.720;2023-05-10T05:25:01;1.10;;;0.30;;
7647;SDS011;3866;48.020;11.720;2023-05-10T05:27:30;0.63;;;0.20;;
7647;SDS011;3866;48.020;11.720;2023-05-10T05:29:57;0.20;;;0.20;;
7647;SDS011;3866;48.020;11.720;2023-05-10T05:32:25;0.40;;;0.40;;
7647;SDS011;3866;48.020;11.720;2023-05-10T05:34:52;1.10;;;0.30;;
7647;SDS011;3866;48.020;11.720;2023-05-10T05:37:19;2.20;;;0.40;;
7647;SDS011;3866;48.020;11.720;2023-05-10T05:39:47;3.77;;;0.20;;
7647;SDS011;3866;48.020;11.720;2023-05-10T05:42:14;0.23;;;0.13;;
7647;SDS011;3866;48.020;11.720;2023-05-10T05:44:45;1.10;;;0.30;;
7647;SDS011;3866;48.020;11.720;2023-05-10T05:47:11;0.70;;;0.10;;
7647;SDS011;3866;48.020;11.720;2023-05-10T05:49:38;0.83;;;0.50;;
7647;SDS011;3866;48.020;11.720;2023-05-10T05:52:05;3.10;;;0.40;;
7647;SDS011;3866;48.020;11.720;2023-05-10T05:54:32;2.43;;;0.47;;
7647;SDS011;3866;48.020;11.720;2023-05-10T05:56:59;0.20;;;0.20;;
7647;SDS011;3866;48.020;11.720;2023-05-10T05:59:26;0.50;;;0.23;;
7647;SDS011;3866;48.020;11.720;2023-05-10T06:01:55;0.90;;;0.37;;
7647;SDS011;3866;48.020;11.720;2023-05-10T06:04:22;3.73;;;0.40;;
7647;SDS011;3866;48.020;11.720;2023-05-10T06:06:48;0.67;;;0.40;;
7647;SDS011;3866;48.020;11.720;2023-05-10T06:09:17;1.10;;;0.40;;
7647;SDS011;3866;48.020;11.720;2023-05-10T06:11:43;0.77;;;0.20;;
7647;SDS011;3866;48.020;11.720;2023-05-10T06:14:10;1.10;;;0.50;;
7647;SDS011;3866;48.020;11.720;2023-05-10T06:16:37;2.27;;;0.60;;
7647;SDS011;3866;48.020;11.720;2023-05-10T06:19:05;0.93;;;0.50;;
7647;SDS011;3866;48.020;11.720;2023-05-10T06:21:32;0.40;;;0.40;;
7647;SDS011;3866;48.020;11.720;2023-05-10T06:23:59;4.57;;;0.50;;
7647;SDS011;3866;48.020;11.720;2023-05-10T06:26:26;3.73;;;0.73;;
7647;SDS011;3866;48.020;11.720;2023-05-10T06:28:53;3.20;;;0.90;;
7647;SDS011;3866;48.020;11.720;2023-05-10T06:31:20;2.43;;;0.80;;
7647;SDS011;3866;48.020;11.720;2023-05-10T06:33:47;2.63;;;0.80;;
7647;SDS011;3866;48.020;11.720;2023-05-10T06:36:15;1.80;;;0.90;;
7647;SDS011;3866;48.020;11.720;2023-05-10T06:38:42;2.93;;;1.00;;
7647;SDS011;3866;48.020;11.720;2023-05-10T06:41:08;1.53;;;0.60;;
7647;SDS011;3866;48.020;11.720;2023-05-10T06:43:35;2.00;;;1.40;;
7647;SDS011;3866;48.020;11.720;2023-05-10T06:46:05;1.07;;;0.50;;
7647;SDS011;3866;48.020;11.720;2023-05-10T06:48:32;1.90;;;0.60;;
7647;SDS011;3866;48.020;11.720;2023-05-10T06:50:59;5.13;;;0.80;;
7647;SDS011;3866;48.020;11.720;2023-05-10T06:53:28;1.33;;;0.60;;
7647;SDS011;3866;48.020;11.720;2023-05-10T06:55:55;2.10;;;0.70;;
7647;SDS011;3866;48.020;11.720;2023-05-10T06:58:21;1.70;;;0.60;;
7647;SDS011;3866;48.020;11.720;2023-05-10T07:00:48;8.73;;;0.90;;
7647;SDS011;3866;48.020;11.720;2023-05-10T07:03:15;0.93;;;0.80;;
7647;SDS011;3866;48.020;11.720;2023-05-10T07:05:42;1.43;;;0.70;;
7647;SDS011;3866;48.020;11.720;2023-05-10T07:08:09;2.17;;;0.90;;
7647;SDS011;3866;48.020;11.720;2023-05-10T07:10:37;0.83;;;0.70;;
7647;SDS011;3866;48.020;11.720;2023-05-10T07:13:04;3.20;;;1.10;;
7647;SDS011;3866;48.020;11.720;2023-05-10T07:15:31;2.70;;;0.70;;
7647;SDS011;3866;48.020;11.720;2023-05-10T07:17:58;1.43;;;0.90;;
7647;SDS011;3866;48.020;11.720;2023-05-10T07:20:25;2.00;;;0.70;;
7647;SDS011;3866;48.020;11.720;2023-05-10T07:22:52;2.87;;;1.03;;
7647;SDS011;3866;48.020;11.720;2023-05-10T07:25:19;1.73;;;0.60;;
7647;SDS011;3866;48.020;11.720;2023-05-10T07:27:47;1.43;;;0.80;;
7647;SDS011;3866;48.020;11.720;2023-05-10T07:30:14;1.27;;;0.70;;
7647;SDS011;3866;48.020;11.720;2023-05-10T07:32:41;2.87;;;0.97;;
7647;SDS011;3866;48.020;11.720;2023-05-10T07:35:08;1.07;;;0.60;;
7647;SDS011;3866;48.020;11.720;2023-05-10T07:37:36;2.50;;;0.60;;
7647;SDS011;3866;48.020;11.720;2023-05-10T07:40:03;1.47;;;0.60;;
7647;SDS011;3866;48.020;11.720;2023-05-10T07:42:31;1.60;;;0.60;;
7647;SDS011;3866;48.020;11.720;2023-05-10T07:44:59;3.73;;;0.67;;
7647;SDS011;3866;48.020;11.720;2023-05-10T07:47:26;0.97;;;0.50;;
7647;SDS011;3866;48.020;11.720;2023-05-10T07:49:53;0.53;;;0.53;;
7647;SDS011;3866;48.020;11.720;2023-05-10T07:52:20;0.93;;;0.60;;
7647;SDS011;3866;48.020;11.720;2023-05-10T07:54:47;0.77;;;0.50;;
7647;SDS011;3866;48.020;11.720;2023-05-10T07:57:13;0.80;;;0.60;;
7647;SDS011;3866;48.020;11.720;2023-05-10T07:59:42;1.27;;;0.50;;
7647;SDS011;3866;48.020;11.720;2023-05-10T08:02:11;0.50;;;0.50;;
7647;SDS011;3866;48.020;11.720;2023-05-10T08:04:38;1.60;;;0.50;;
7647;SDS011;3866;48.020;11.720;2023-05-10T08:07:05;1.60;;;0.43;;
7647;SDS011;3866;48.020;11.720;2023-05-10T08:09:32;0.53;;;0.30;;
7647;SDS011;3866;48.020;11.720;2023-05-10T08:11:59;5.10;;;0.53;;
7647;SDS011;3866;48.020;11.720;2023-05-10T08:14:26;2.57;;;0.50;;
7647;SDS011;3866;48.020;11.720;2023-05-10T08:16:54;1.10;;;0.50;;
7647;SDS011;3866;48.020;11.720;2023-05-10T08:19:22;1.03;;;0.70;;
7647;SDS011;3866;48.020;11.720;2023-05-10T08:21:49;5.20;;;1.83;;
7647;SDS011;3866;48.020;11.720;2023-05-10T08:24:16;1.93;;;0.50;;
7647;SDS011;3866;48.020;11.720;2023-05-10T08:26:43;0.47;;;0.30;;
7647;SDS011;3866;48.020;11.720;2023-05-10T08:29:09;0.70;;;0.70;;
7647;SDS011;3866;48.020;11.720;2023-05-10T08:31:36;1.37;;;0.37;;
7647;SDS011;3866;48.020;11.720;2023-05-10T08:34:03;2.30;;;0.60;;
7647;SDS011;3866;48.020;11.720;2023-05-10T08:36:31;2.50;;;0.60;;
7647;SDS011;3866;48.020;11.720;2023-05-10T08:38:58;1.23;;;0.60;;
7647;SDS011;3866;48.020;11.720;2023-05-10T08:41:25;3.17;;;0.40;;
7647;SDS011;3866;48.020;11.720;2023-05-10T08:43:52;1.60;;;0.47;;
7647;SDS011;3866;48.020;11.720;2023-05-10T08:46:20;1.30;;;0.37;;
7647;SDS011;3866;48.020;11.720;2023-05-10T08:48:48;1.50;;;0.50;;
7647;SDS011;3866;48.020;11.720;2023-05-10T08:51:17;0.57;;;0.40;;
7647;SDS011;3866;48.020;11.720;2023-05-10T08:53:47;4.20;;;0.40;;
7647;SDS011;3866;48.020;11.720;2023-05-10T08:56:15;0.30;;;0.30;;
7647;SDS011;3866;48.020;11.720;2023-05-10T08:58:42;0.30;;;0.30;;
7647;SDS011;3866;48.020;11.720;2023-05-10T09:01:10;2.30;;;0.40;;
7647;SDS011;3866;48.020;11.720;2023-05-10T09:03:39;0.50;;;0.20;;
7647;SDS011;3866;48.020;11.720;2023-05-10T09:06:06;1.27;;;0.30;;
7647;SDS011;3866;48.020;11.720;2023-05-10T09:08:33;1.13;;;0.50;;
7647;SDS011;3866;48.020;11.720;2023-05-10T09:11:01;1.03;;;0.30;;
7647;SDS011;3866;48.020;11.720;2023-05-10T09:13:28;0.43;;;0.43;;
7647;SDS011;3866;48.020;11.720;2023-05-10T09:15:56;2.23;;;0.27;;
7647;SDS011;3866;48.020;11.720;2023-05-10T09:18:23;5.50;;;0.57;;
7647;SDS011;3866;48.020;11.720;2023-05-10T09:20:50;1.13;;;0.50;;
7647;SDS011;3866;48.020;11.720;2023-05-10T09:23:17;2.63;;;0.80;;
7647;SDS011;3866;48.020;11.720;2023-05-10T09:25:45;0.83;;;0.57;;
7647;SDS011;3866;48.020;11.720;2023-05-10T09:28:13;2.00;;;1.00;;
7647;SDS011;3866;48.020;11.720;2023-05-10T09:30:40;1.93;;;0.60;;
7647;SDS011;3866;48.020;11.720;2023-05-10T09:33:07;0.87;;;0.73;;
7647;SDS011;3866;48.020;11.720;2023-05-10T09:35:34;4.33;;;0.67;;
7647;SDS011;3866;48.020;11.720;2023-05-10T09:38:03;0.57;;;0.57;;
7647;SDS011;3866;48.020;11.720;2023-05-10T09:40:30;0.97;;;0.50;;
7647;SDS011;3866;48.020;11.720;2023-05-10T09:42:58;1.47;;;0.50;;
7647;SDS011;3866;48.020;11.720;2023-05-10T09:45:28;0.50;;;0.50;;
7647;SDS011;3866;48.020;11.720;2023-05-10T09:47:56;1.60;;;0.83;;
7647;SDS011;3866;48.020;11.720;2023-05-10T09:50:25;2.30;;;0.87;;
7647;SDS011;3866;48.020;11.720;2023-05-10T09:52:53;0.53;;;0.53;;
7647;SDS011;3866;48.020;11.720;2023-05-10T09:55:23;1.43;;;0.90;;
7647;SDS011;3866;48.020;11.720;2023-05-10T09:57:58;3.13;;;0.90;;
7647;SDS011;3866;48.020;11.720;2023-05-10T10:00:27;1.17;;;0.70;;
7647;SDS011;3866;48.020;11.720;2023-05-10T10:03:00;2.07;;;0.93;;
7647;SDS011;3866;48.020;11.720;2023-05-10T10:05:28;2.20;;;0.80;;
7647;SDS011;3866;48.020;11.720;2023-05-10T10:07:55;1.00;;;0.80;;
7647;SDS011;3866;48.020;11.720;2023-05-10T10:10:23;1.53;;;0.80;;
7647;SDS011;3866;48.020;11.720;2023-05-10T10:12:50;1.43;;;0.57;;
7647;SDS011;3866;48.020;11.720;2023-05-10T10:15:17;1.17;;;1.10;;
7647;SDS011;3866;48.020;11.720;2023-05-10T10:17:46;0.90;;;0.70;;
7647;SDS011;3866;48.020;11.720;2023-05-10T10:20:14;1.13;;;0.80;;
7647;SDS011;3866;48.020;11.720;2023-05-10T10:22:41;1.77;;;0.83;;
7647;SDS011;3866;48.020;11.720;2023-05-10T10:25:10;2.47;;;0.80;;
7647;SDS011;3866;48.020;11.720;2023-05-10T10:27:41;1.67;;;0.63;;
7647;SDS011;3866;48.020;11.720;2023-05-10T10:30:16;1.87;;;0.70;;
7647;SDS011;3866;48.020;11.720;2023-05-10T10:36:02;1.43;;;0.50;;
7647;SDS011;3866;48.020;11.720;2023-05-10T10:38:36;2.87;;;0.77;;
7647;SDS011;3866;48.020;11.720;2023-05-10T10:41:27;0.97;;;0.33;;
7647;SDS011;3866;48.020;11.720;2023-05-10T10:49:42;0.50;;;0.50;;
7647;SDS011;3866;48.020;11.720;2023-05-10T10:52:22;0.30;;;0.30;;
7647;SDS011;3866;48.020;11.720;2023-05-10T10:54:53;1.27;;;0.30;;
7647;SDS011;3866;48.020;11.720;2023-05-10T10:57:25;0.57;;;0.50;;
7647;SDS011;3866;48.020;11.720;2023-05-10T10:59:54;1.40;;;0.80;;
7647;SDS011;3866;48.020;11.720;2023-05-10T11:02:54;0.60;;;0.50;;
7647;SDS011;3866;48.020;11.720;2023-05-10T11:08:11;0.73;;;0.60;;
7647;SDS011;3866;48.020;11.720;2023-05-10T11:10:40;0.30;;;0.30;;
7647;SDS011;3866;48.020;11.720;2023-05-10T11:13:17;0.40;;;0.40;;
7647;SDS011;3866;48.020;11.720;2023-05-10T11:15:55;1.30;;;0.60;;
7647;SDS011;3866;48.020;11.720;2023-05-10T11:18:24;0.77;;;0.30;;
7647;SDS011;3866;48.020;11.720;2023-05-10T11:20:52;0.87;;;0.53;;
7647;SDS011;3866;48.020;11.720;2023-05-10T11:23:28;0.73;;;0.60;;
7647;SDS011;3866;48.020;11.720;2023-05-10T11:25:56;1.83;;;0.53;;
7647;SDS011;3866;48.020;11.720;2023-05-10T11:28:23;1.30;;;0.50;;
7647;SDS011;3866;48.020;11.720;2023-05-10T11:30:51;0.53;;;0.30;;
7647;SDS011;3866;48.020;11.720;2023-05-10T11:33:19;2.37;;;0.40;;
7647;SDS011;3866;48.020;11.720;2023-05-10T11:35:46;4.37;;;0.60;;
7647;SDS011;3866;48.020;11.720;2023-05-10T11:38:13;2.60;;;1.33;;
7647;SDS011;3866;48.020;11.720;2023-05-10T11:40:41;2.10;;;0.77;;
7647;SDS011;3866;48.020;11.720;2023-05-10T11:43:09;5.33;;;1.90;;
7647;SDS011;3866;48.020;11.720;2023-05-10T11:45:37;2.27;;;1.60;;
7647;SDS011;3866;48.020;11.720;2023-05-10T11:48:04;4.03;;;0.93;;
7647;SDS011;3866;48.020;11.720;2023-05-10T11:50:31;0.97;;;0.50;;
7647;SDS011;3866;48.020;11.720;2023-05-10T11:52:58;4.50;;;0.50;;
7647;SDS011;3866;48.020;11.720;2023-05-10T11:55:25;0.70;;;0.40;;
7647;SDS011;3866;48.020;11.720;2023-05-10T11:57:54;1.97;;;0.50;;
7647;SDS011;3866;48.020;11.720;2023-05-10T12:00:21;1.50;;;0.53;;
7647;SDS011;3866;48.020;11.720;2023-05-10T12:02:48;3.77;;;0.73;;
7647;SDS011;3866;48.020;11.720;2023-05-10T12:05:15;1.13;;;0.93;;
7647;SDS011;3866;48.020;11.720;2023-05-10T12:07:42;1.67;;;0.63;;
7647;SDS011;3866;48.020;11.720;2023-05-10T12:10:10;3.40;;;0.80;;
7647;SDS011;3866;48.020;11.720;2023-05-10T12:12:39;0.77;;;0.70;;
7647;SDS011;3866;48.020;11.720;2023-05-10T12:15:13;1.37;;;0.80;;
7647;SDS011;3866;48.020;11.720;2023-05-10T12:17:44;2.97;;;1.00;;
7647;SDS011;3866;48.020;11.720;2023-05-10T12:20:15;0.60;;;0.60;;
7647;SDS011;3866;48.020;11.720;2023-05-10T12:22:43;1.00;;;1.00;;
7647;SDS011;3866;48.020;11.720;2023-05-10T12:25:11;2.30;;;1.20;;
7647;SDS011;3866;48.020;11.720;2023-05-10T12:27:38;1.57;;;1.00;;
7647;SDS011;3866;48.020;11.720;2023-05-10T12:30:06;2.30;;;1.10;;
7647;SDS011;3866;48.020;11.720;2023-05-10T12:32:41;2.80;;;1.10;;
7647;SDS011;3866;48.020;11.720;2023-05-10T12:35:10;1.60;;;1.50;;
7647;SDS011;3866;48.020;11.720;2023-05-10T12:37:37;3.50;;;1.60;;
7647;SDS011;3866;48.020;11.720;2023-05-10T12:40:05;1.67;;;1.53;;
7647;SDS011;3866;48.020;11.720;2023-05-10T12:42:34;2.50;;;1.43;;
7647;SDS011;3866;48.020;11.720;2023-05-10T12:45:01;2.93;;;1.70;;
7647;SDS011;3866;48.020;11.720;2023-05-10T12:47:29;3.20;;;1.80;;
7647;SDS011;3866;48.020;11.720;2023-05-10T12:49:57;2.97;;;2.50;;
7647;SDS011;3866;48.020;11.720;2023-05-10T12:52:24;2.50;;;2.20;;
7647;SDS011;3866;48.020;11.720;2023-05-10T12:54:51;1.63;;;1.40;;
7647;SDS011;3866;48.020;11.720;2023-05-10T12:57:18;3.33;;;1.60;;
7647;SDS011;3866;48.020;11.720;2023-05-10T12:59:45;1.40;;;1.10;;
7647;SDS011;3866;48.020;11.720;2023-05-10T13:02:12;2.73;;;1.43;;
7647;SDS011;3866;48.020;11.720;2023-05-10T13:04:40;0.90;;;0.90;;
7647;SDS011;3866;48.020;11.720;2023-05-10T13:07:08;1.47;;;0.90;;
7647;SDS011;3866;48.020;11.720;2023-05-10T13:09:35;1.80;;;0.90;;
7647;SDS011;3866;48.020;11.720;2023-05-10T13:12:02;2.77;;;1.90;;
7647;SDS011;3866;48.020;11.720;2023-05-10T13:14:29;4.20;;;2.20;;
7647;SDS011;3866;48.020;11.720;2023-05-10T13:16:57;3.43;;;2.43;;
7647;SDS011;3866;48.020;11.720;2023-05-10T13:19:24;4.43;;;2.40;;
7647;SDS011;3866;48.020;11.720;2023-05-10T13:21:52;3.37;;;2.00;;
7647;SDS011;3866;48.020;11.720;2023-05-10T13:24:20;3.03;;;1.13;;
7647;SDS011;3866;48.020;11.720;2023-05-10T13:26:47;1.57;;;1.40;;
7647;SDS011;3866;48.020;11.720;2023-05-10T13:29:14;1.50;;;0.97;;
7647;SDS011;3866;48.020;11.720;2023-05-10T13:31:43;2.17;;;1.13;;
7647;SDS011;3866;48.020;11.720;2023-05-10T13:34:10;1.53;;;1.27;;
7647;SDS011;3866;48.020;11.720;2023-05-10T13:36:37;0.90;;;0.90;;
7647;SDS011;3866;48.020;11.720;2023-05-10T13:39:04;1.53;;;1.30;;
7647;SDS011;3866;48.020;11.720;2023-05-10T13:41:32;2.73;;;1.00;;
7647;SDS011;3866;48.020;11.720;2023-05-10T13:43:59;0.87;;;0.83;;
7647;SDS011;3866;48.020;11.720;2023-05-10T13:46:26;1.77;;;1.00;;
7647;SDS011;3866;48.020;11.720;2023-05-10T13:48:53;0.83;;;0.83;;
7647;SDS011;3866;48.020;11.720;2023-05-10T13:51:20;1.53;;;1.03;;
7647;SDS011;3866;48.020;11.720;2023-05-10T13:53:46;1.37;;;0.70;;
7647;SDS011;3866;48.020;11.720;2023-05-10T13:56:13;0.97;;;0.90;;
7647;SDS011;3866;48.020;11.720;2023-05-10T13:58:42;3.27;;;1.20;;
7647;SDS011;3866;48.020;11.720;2023-05-10T14:01:09;2.10;;;1.27;;
7647;SDS011;3866;48.020;11.720;2023-05-10T14:03:37;2.40;;;1.40;;
7647;SDS011;3866;48.020;11.720;2023-05-10T14:06:04;5.20;;;1.60;;
7647;SDS011;3866;48.020;11.720;2023-05-10T14:08:32;3.63;;;1.60;;
7647;SDS011;3866;48.020;11.720;2023-05-10T14:10:59;2.40;;;1.17;;
7647;SDS011;3866;48.020;11.720;2023-05-10T14:13:26;2.10;;;1.20;;
7647;SDS011;3866;48.020;11.720;2023-05-10T14:15:54;2.07;;;1.00;;
7647;SDS011;3866;48.020;11.720;2023-05-10T14:18:21;1.20;;;0.93;;
7647;SDS011;3866;48.020;11.720;2023-05-10T14:20:48;1.40;;;1.10;;
7647;SDS011;3866;48.020;11.720;2023-05-10T14:23:15;1.73;;;0.97;;
7647;SDS011;3866;48.020;11.720;2023-05-10T14:25:42;1.00;;;0.80;;
7647;SDS011;3866;48.020;11.720;2023-05-10T14:28:09;2.50;;;1.00;;
7647;SDS011;3866;48.020;11.720;2023-05-10T14:30:37;0.90;;;0.90;;
7647;SDS011;3866;48.020;11.720;2023-05-10T14:33:05;1.40;;;0.80;;
7647;SDS011;3866;48.020;11.720;2023-05-10T14:35:32;1.13;;;0.80;;
7647;SDS011;3866;48.020;11.720;2023-05-10T14:37:59;0.67;;;0.67;;
7647;SDS011;3866;48.020;11.720;2023-05-10T14:40:26;1.40;;;0.70;;
7647;SDS011;3866;48.020;11.720;2023-05-10T14:42:53;0.97;;;0.60;;
7647;SDS011;3866;48.020;11.720;2023-05-10T14:45:21;2.00;;;0.80;;
7647;SDS011;3866;48.020;11.720;2023-05-10T14:47:48;3.77;;;0.90;;
7647;SDS011;3866;48.020;11.720;2023-05-10T14:50:17;1.67;;;0.80;;
7647;SDS011;3866;48.020;11.720;2023-05-10T14:52:44;1.00;;;0.60;;
7647;SDS011;3866;48.020;11.720;2023-05-10T14:55:11;2.13;;;0.80;;
7647;SDS011;3866;48.020;11.720;2023-05-10T14:57:38;2.00;;;0.90;;
7647;SDS011;3866;48.020;11.720;2023-05-10T15:00:05;1.30;;;0.93;;
7647;SDS011;3866;48.020;11.720;2023-05-10T15:02:33;1.30;;;1.20;;
7647;SDS011;3866;48.020;11.720;2023-05-10T15:05:00;1.70;;;1.57;;
7647;SDS011;3866;48.020;11.720;2023-05-10T15:07:28;2.80;;;1.80;;
7647;SDS011;3866;48.020;11.720;2023-05-10T15:09:56;2.60;;;1.50;;
7647;SDS011;3866;48.020;11.720;2023-05-10T15:12:23;1.30;;;1.20;;
7647;SDS011;3866;48.020;11.720;2023-05-10T15:14:50;2.33;;;1.40;;
7647;SDS011;3866;48.020;11.720;2023-05-10T15:17:16;2.30;;;1.90;;
7647;SDS011;3866;48.020;11.720;2023-05-10T15:19:43;1.93;;;1.20;;